Latest Weather Observations for Delamere

IDD60801

Issued at 4:02 pm CST Saturday 25 April 2015 (issued every 30 minutes, with the page automatically refreshed every 10 minutes)

About weather observations | Map of weather stations | Latest weather observations for NT | Other Formats
Station Details ID: 014949 Name: DELAMERE WEAPONS RANGE Lat: -15.74 Lon: 131.92 Height: 221.0 m
Data from the previous 72 hours. | See also: Recent months at Delamere
Date/Time
CST
Temp
°C
App
Temp
°C
Dew
Point
Rel
Hum
%
Delta-T
°C
Wind Press
QNH
hPa
Press
MSL
hPa
Rain
since 9 am
mm
Dir
 
Spd
km/h
Gust
km/h
Spd
kts
Gust
kts
25/04:00pm 32.4 27.4 3.4 16 15.1 SE 19 28 10 15 1010.6 - 0.0
25/03:30pm 32.3 28.4 3.3 16 15.0 SE 13 28 7 15 1010.7 - 0.0
25/03:00pm 32.9 28.7 3.8 16 15.3 ESE 15 22 8 12 1010.7 1009.4 0.0
25/02:30pm 32.4 28.3 4.2 17 14.8 ESE 15 24 8 13 1011.0 - 0.0
25/02:00pm 32.6 28.0 3.5 16 15.1 SSE 17 32 9 17 1011.4 - 0.0
25/01:30pm 32.0 27.3 3.1 16 14.9 ESE 17 30 9 16 1011.6 - 0.0
25/01:00pm 31.2 25.4 2.4 16 14.6 ESE 22 35 12 19 1011.8 - 0.0
25/12:30pm 30.7 24.5 2.0 16 14.4 E 24 30 13 16 1012.3 - 0.0
25/12:00pm 30.5 25.0 1.9 16 14.3 SE 20 32 11 17 1012.7 1011.5 0.0
25/11:30am 29.8 24.3 2.1 17 13.8 E 20 33 11 18 1013.2 - 0.0
25/11:00am 29.6 24.1 2.0 17 13.7 SE 20 32 11 17 1013.5 - 0.0
25/10:30am 28.8 23.0 2.1 18 13.2 ESE 22 32 12 17 1013.7 - 0.0
25/10:00am 27.6 21.9 2.6 20 12.4 ESE 22 35 12 19 1013.8 - 0.0
25/09:30am 26.5 21.3 2.4 21 11.8 ESE 19 33 10 18 1013.7 - 0.0
25/09:00am 25.3 19.6 2.7 23 11.1 ESE 22 30 12 16 1013.3 1012.1 0.0
25/08:30am 23.6 18.5 3.0 26 10.0 ESE 19 28 10 15 1013.1 - 0.0
25/08:00am 22.6 18.3 3.2 28 9.4 SE 15 24 8 13 1012.9 - 0.0
25/07:30am 20.9 17.4 3.6 32 8.4 ESE 11 15 6 8 1012.7 - 0.0
25/07:00am 20.8 16.8 3.1 31 8.5 SE 13 17 7 9 1012.4 - 0.0
25/06:30am 21.1 17.2 3.3 31 8.6 SE 13 17 7 9 1012.1 - 0.0
25/06:00am 21.1 17.3 3.8 32 8.4 SE 13 17 7 9 1011.8 1010.5 0.0
25/05:30am 19.7 17.4 5.7 40 7.0 SSE 7 9 4 5 1011.8 - 0.0
25/05:00am 20.0 17.9 5.6 39 7.2 SE 6 7 3 4 1011.6 - 0.0
25/04:30am 20.4 18.0 5.2 37 7.5 ESE 7 9 4 5 1011.5 - 0.0
25/04:00am 20.5 18.2 5.7 38 7.4 ESE 7 11 4 6 1011.5 - 0.0
25/03:30am 20.1 18.2 7.5 44 6.5 E 7 11 4 6 1011.6 - 0.0
25/03:00am 19.9 18.4 8.6 48 6.0 E 6 7 3 4 1011.9 1010.6 0.0
25/02:30am 19.9 18.4 8.3 47 6.1 E 6 7 3 4 1012.0 - 0.0
25/02:00am 20.4 18.9 8.4 46 6.3 E 6 7 3 4 1012.2 - 0.0
25/01:30am 21.3 19.5 7.2 40 7.3 E 6 7 3 4 1012.5 - 0.0
25/01:00am 21.6 19.8 7.8 41 7.3 ENE 7 9 4 5 1012.7 - 0.0
25/12:30am 21.4 19.7 8.3 43 6.9 E 7 11 4 6 1012.8 - 0.0
25/12:00am 21.4 20.3 9.9 48 6.3 E 6 7 3 4 1012.8 1011.6 0.0
 
Date/Time
CST
Temp
°C
App
Temp
°C
Dew
Point
Rel
Hum
%
Delta-T
°C
Wind Press
QNH
hPa
Press
MSL
hPa
Rain
since 9 am
mm
Dir
 
Spd
km/h
Gust
km/h
Spd
kts
Gust
kts
24/11:30pm 21.9 21.0 10.7 49 6.2 SE 6 9 3 5 1013.0 - 0.0
24/11:00pm 22.2 21.5 11.3 50 6.1 SE 6 7 3 4 1012.8 - 0.0
24/10:30pm 22.0 20.8 10.2 47 6.5 SSE 7 9 4 5 1012.9 - 0.0
24/10:00pm 22.5 21.8 10.0 45 6.9 SE 4 9 2 5 1012.8 - 0.0
24/09:30pm 23.4 22.6 9.8 42 7.5 SE 4 6 2 3 1012.8 - 0.0
24/09:00pm 23.9 22.7 9.5 40 7.9 E 6 7 3 4 1012.5 1011.2 0.0
24/08:30pm 24.6 23.1 8.5 36 8.7 ENE 6 6 3 3 1012.0 - 0.0
24/08:00pm 25.7 24.7 8.7 34 9.3 ENE 4 6 2 3 1011.7 - 0.0
24/07:30pm 26.8 25.2 7.8 30 10.3 ENE 6 7 3 4 1011.3 - 0.0
24/07:00pm 27.9 25.8 6.6 26 11.4 ENE 7 9 4 5 1010.9 - 0.0
24/06:30pm 29.3 26.9 5.4 22 12.6 E 7 9 4 5 1010.5 - 0.0
24/06:00pm 30.9 28.0 4.6 19 13.8 E 9 15 5 8 1010.2 1008.9 0.0
24/05:30pm 31.8 28.4 3.8 17 14.6 SE 11 17 6 9 1010.0 - 0.0
24/05:00pm 31.8 28.0 3.8 17 14.6 ESE 13 19 7 10 1010.0 - 0.0
24/04:30pm 32.0 27.8 3.9 17 14.7 ESE 15 20 8 11 1009.9 - 0.0
24/04:00pm 32.4 29.2 5.0 18 14.6 SE 11 19 6 10 1009.9 - 0.0
24/03:30pm 32.2 27.3 4.1 17 14.7 E 19 24 10 13 1010.0 - 0.0
24/03:00pm 31.8 28.4 3.8 17 14.6 SSE 11 20 6 11 1010.1 1008.8 0.0
24/02:30pm 31.7 27.5 3.7 17 14.5 SE 15 24 8 13 1010.2 - 0.0
24/02:00pm 31.4 26.7 3.4 17 14.4 SE 17 28 9 15 1010.4 - 0.0
24/01:30pm 31.0 26.8 3.9 18 14.1 SE 15 24 8 13 1010.8 - 0.0
24/01:00pm 31.0 27.0 4.7 19 13.8 ESE 15 20 8 11 1011.4 - 0.0
24/12:30pm 30.2 25.8 4.8 20 13.3 ESE 17 24 9 13 1011.8 - 0.0
24/12:00pm 30.3 25.7 5.6 21 13.1 E 19 30 10 16 1012.3 1011.0 0.0
24/11:30am 29.6 24.8 5.6 22 12.7 E 20 28 11 15 1012.7 - 0.0
24/11:00am 28.8 24.2 5.6 23 12.2 ESE 19 26 10 14 1013.2 - 0.0
24/10:30am 27.9 23.1 4.9 23 11.9 E 19 28 10 15 1013.6 - 0.0
24/10:00am 27.2 22.3 4.9 24 11.5 E 20 30 11 16 1013.8 - 0.0
24/09:30am 26.1 21.1 4.6 25 11.0 ESE 20 30 11 16 1013.6 - 0.0
24/09:00am 24.2 19.5 5.1 29 9.7 ESE 19 28 10 15 1013.4 1012.2 0.0
24/08:30am 22.6 18.5 4.2 30 9.1 ESE 15 22 8 12 1013.3 - 0.0
24/08:00am 21.4 17.7 4.5 33 8.3 ESE 13 19 7 10 1013.0 - 0.0
24/07:30am 20.4 17.0 4.0 34 8.0 SE 11 15 6 8 1012.8 - 0.0
24/07:00am 19.5 16.4 3.6 35 7.6 SE 9 11 5 6 1012.6 - 0.0
24/06:30am 20.0 16.5 3.7 34 7.8 SE 11 17 6 9 1012.3 - 0.0
24/06:00am 20.3 16.9 3.9 34 7.9 SE 11 15 6 8 1012.1 1010.8 0.0
24/05:30am 20.1 17.5 4.2 35 7.7 SE 7 11 4 6 1011.9 - 0.0
24/05:00am 20.6 17.5 3.8 33 8.1 ESE 9 11 5 6 1011.5 - 0.0
24/04:30am 21.4 18.3 3.6 31 8.6 SE 9 11 5 6 1011.4 - 0.0
24/04:00am 21.4 18.5 4.5 33 8.3 SSE 9 15 5 8 1011.2 - 0.0
24/03:30am 21.3 18.4 4.8 34 8.2 SSE 9 11 5 6 1011.2 - 0.0
24/03:00am 21.3 18.6 5.6 36 7.9 S 9 11 5 6 1011.4 1010.1 0.0
24/02:30am 21.1 19.1 7.0 40 7.3 SSE 7 7 4 4 1011.4 - 0.0
24/02:00am 21.6 20.2 8.8 44 6.9 ESE 6 7 3 4 1011.6 - 0.0
24/01:30am 22.7 20.4 5.6 33 8.7 E 7 9 4 5 1011.8 - 0.0
24/01:00am 23.5 21.2 5.9 32 9.0 E 7 11 4 6 1011.9 - 0.0
24/12:30am 24.1 21.5 5.9 31 9.4 ESE 9 13 5 7 1012.3 - 0.0
24/12:00am 23.9 22.1 7.9 36 8.5 ESE 7 9 4 5 1012.4 1011.1 0.0
 
Date/Time
CST
Temp
°C
App
Temp
°C
Dew
Point
Rel
Hum
%
Delta-T
°C
Wind Press
QNH
hPa
Press
MSL
hPa
Rain
since 9 am
mm
Dir
 
Spd
km/h
Gust
km/h
Spd
kts
Gust
kts
23/11:30pm 24.9 22.4 8.4 35 8.9 SE 11 13 6 7 1012.5 - 0.0
23/11:00pm 23.8 23.1 11.5 46 7.0 SE 6 7 3 4 1012.3 - 0.0
23/10:30pm 23.6 23.1 12.0 48 6.6 SE 6 7 3 4 1012.3 - 0.0
23/10:00pm 23.6 23.5 12.0 48 6.6 ESE 4 9 2 5 1012.4 - 0.0
23/09:30pm 24.6 25.4 12.5 46 7.0 CALM 0 0 0 0 1012.2 - 0.0
23/09:00pm 25.4 24.6 11.2 41 8.1 E 6 7 3 4 1012.1 1010.8 0.0
23/08:30pm 26.0 25.2 11.0 39 8.5 E 6 7 3 4 1012.1 - 0.0
23/08:00pm 26.4 25.5 10.5 37 9.0 E 6 7 3 4 1011.8 - 0.0
23/07:30pm 27.1 27.3 10.7 35 9.3 CALM 0 7 0 4 1011.4 - 0.0
23/07:00pm 28.0 27.0 10.2 33 10.1 ENE 6 7 3 4 1011.0 - 0.0
23/06:30pm 29.0 27.6 9.7 30 10.9 ENE 7 11 4 6 1010.8 - 0.0
23/06:00pm 30.4 28.8 8.7 26 12.2 E 7 11 4 6 1010.5 1009.2 0.0
23/05:30pm 31.2 28.9 7.6 23 13.0 ESE 9 13 5 7 1010.3 - 0.0
23/05:00pm 31.6 28.9 7.3 22 13.4 SE 11 20 6 11 1009.9 - 0.0
23/04:30pm 32.6 30.5 8.1 22 13.7 SSE 9 17 5 9 1009.7 - 0.0
23/04:00pm 32.5 29.4 7.4 21 13.9 S 13 20 7 11 1009.3 - 0.0
23/03:30pm 32.1 29.7 7.0 21 13.8 SE 9 17 5 9 1009.4 - 0.0
23/03:00pm 31.9 28.9 7.5 22 13.5 SSE 13 20 7 11 1009.7 1008.4 0.0
23/02:30pm 31.7 28.8 6.7 21 13.6 ESE 11 20 6 11 1009.8 - 0.0
23/02:00pm 31.5 27.7 5.8 20 13.8 E 15 26 8 14 1010.1 - 0.0
23/01:30pm 31.2 28.1 5.6 20 13.7 E 11 17 6 9 1010.7 - 0.0
23/01:00pm 30.2 26.6 4.8 20 13.3 ESE 13 20 7 11 1011.2 - 0.0
23/12:30pm 30.1 25.3 4.7 20 13.3 ENE 19 22 10 12 1011.4 - 0.0
23/12:00pm 28.9 24.4 4.4 21 12.7 E 17 20 9 11 1011.8 1010.5 0.0
23/11:30am 28.7 23.8 4.2 21 12.6 E 19 28 10 15 1012.5 - 0.0
23/11:00am 27.8 22.9 4.2 22 12.1 E 19 28 10 15 1013.0 - 0.0
23/10:30am 27.0 21.9 4.1 23 11.6 ESE 20 26 11 14 1013.2 - 0.0
23/10:00am 26.1 21.1 3.4 23 11.3 ESE 19 32 10 17 1013.2 - 0.0
23/09:30am 25.6 20.5 4.1 25 10.8 E 20 32 11 17 1013.4 - 0.0
23/09:00am 23.8 18.6 3.7 27 9.9 E 20 32 11 17 1013.2 1012.0 0.0
23/08:30am 22.8 18.2 3.9 29 9.3 ESE 17 24 9 13 1013.5 - 0.0
23/08:00am 21.5 16.8 3.2 30 8.8 ESE 17 24 9 13 1013.1 - 0.0
23/07:30am 20.6 16.2 2.9 31 8.4 ESE 15 20 8 11 1013.0 - 0.0
23/07:00am 20.1 15.7 2.9 32 8.1 ESE 15 20 8 11 1012.6 - 0.0
23/06:30am 19.6 16.1 3.7 35 7.6 ESE 11 17 6 9 1012.6 - 0.0
23/06:00am 19.5 16.1 4.0 36 7.5 ESE 11 15 6 8 1012.2 1010.9 0.0
23/05:30am 19.8 16.4 3.9 35 7.7 E 11 13 6 7 1012.1 - 0.0
23/05:00am 20.1 17.1 4.2 35 7.7 E 9 11 5 6 1012.1 - 0.0
23/04:30am 20.7 17.7 4.3 34 8.0 ESE 9 13 5 7 1012.0 - 0.0
23/04:00am 21.2 17.9 4.3 33 8.3 E 11 15 6 8 1011.9 - 0.0
23/03:30am 21.4 17.7 4.5 33 8.3 ESE 13 17 7 9 1011.9 - 0.0
23/03:00am 21.5 17.9 5.0 34 8.2 ESE 13 19 7 10 1011.9 1010.6 0.0
23/02:30am 21.5 18.1 5.8 36 7.9 SE 13 20 7 11 1012.2 - 0.0
23/02:00am 21.0 19.1 7.6 42 7.0 ESE 7 11 4 6 1012.7 - 0.0
23/01:30am 21.6 19.5 8.1 42 7.1 ESE 9 11 5 6 1012.9 - 0.0
23/01:00am 22.2 19.7 8.0 40 7.5 ESE 11 15 6 8 1013.2 - 0.0
23/12:30am 23.0 20.0 7.9 38 8.0 ESE 13 17 7 9 1013.4 - 0.0
23/12:00am 22.7 20.5 9.5 43 7.2 SE 11 13 6 7 1013.8 1012.6 0.0
 
Date/Time
CST
Temp
°C
App
Temp
°C
Dew
Point
Rel
Hum
%
Delta-T
°C
Wind Press
QNH
hPa
Press
MSL
hPa
Rain
since 9 am
mm
Dir
 
Spd
km/h
Gust
km/h
Spd
kts
Gust
kts
22/11:30pm 22.5 21.1 9.6 44 7.0 ESE 7 9 4 5 1013.8 - 0.0
22/11:00pm 23.0 21.0 10.1 44 7.1 ESE 11 15 6 8 1013.9 - 0.0
22/10:30pm 22.7 22.3 11.1 48 6.5 E 4 7 2 4 1013.9 - 0.0
22/10:00pm 23.3 23.7 11.4 47 6.7 CALM 0 0 0 0 1014.1 - 0.0
22/09:30pm 23.6 23.8 10.6 44 7.3 CALM 0 0 0 0 1014.2 - 0.0
22/09:00pm 24.4 24.4 9.9 40 8.0 CALM 0 0 0 0 1014.2 1013.0 0.0
22/08:30pm 25.7 24.2 9.1 35 9.1 ESE 7 7 4 4 1014.0 - 0.0
22/08:00pm 26.0 24.7 9.8 36 9.0 SE 7 7 4 4 1013.7 - 0.0
22/07:30pm 26.5 25.2 9.8 35 9.3 ESE 7 7 4 4 1013.4 - 0.0
22/07:00pm 27.2 25.6 8.6 31 10.2 ESE 7 9 4 5 1013.2 - 0.0
22/06:30pm 28.3 26.5 8.1 28 11.1 ESE 7 9 4 5 1012.7 - 0.0
22/06:00pm 29.6 27.6 6.9 24 12.3 E 7 11 4 6 1012.3 1011.0 0.0
22/05:30pm 30.1 27.2 6.7 23 12.7 SE 11 15 6 8 1012.0 - 0.0
22/05:00pm 30.3 27.7 6.2 22 12.9 SE 9 13 5 7 1011.6 - 0.0
22/04:30pm 30.4 27.3 5.6 21 13.2 ENE 11 17 6 9 1011.4 - 0.0

Other Formats:

Comma delimited format used in spreadsheet applications
http://www.bom.gov.au/fwo/IDD60801/IDD60801.94225.axf

JavaScript Object Notation format (JSON) in row-major order
http://www.bom.gov.au/fwo/IDD60801/IDD60801.94225.json